Local Weather
17097
page-template-default,page,page-id-17097,bridge-core-1.0.4,ajax_fade,page_not_loaded,,hide_top_bar_on_mobile_header,qode-child-theme-ver-1.0.0,qode-theme-ver-18.0.9,qode-theme-bridge,qode_header_in_grid,wpb-js-composer js-comp-ver-4.11.2.1,vc_responsive
 

LOCAL WEATHER

METAR & TAF for EGTK Oxford

Available data for EGTK from the past hour
OXFORD
Metar
EGTK 171920Z 35005KT 4000 BR SCT012 SCT025 06/06 Q1013

19:20 UTC

Wind: 350° 5kt

Visibility: 4000 m

Sky: SCT 1200 ft

Temp: 6 deg C / 42.8 deg F

Dewpoint: 6 deg C / 42.8 deg F

Pressure: 1013 hPa

TAF
TAF EGTK 171709Z 1718/1722 VRB04KT 6000 BKN008 TEMPO 1718/1719 3000 -RADZ BR BECMG 1719/1722 3000 BR PROB40 TEMPO 1719/1722 RADZ BKN003